createdAt,value
2023-03-13T00:01:13.701Z,38.97
2023-03-13T00:03:40.457Z,38.67
2023-03-13T00:06:07.436Z,31.57
2023-03-13T00:08:33.909Z,43.33
2023-03-13T00:11:11.187Z,33.17
2023-03-13T00:13:38.081Z,40.07
2023-03-13T00:16:07.178Z,32.27
2023-03-13T00:18:34.143Z,38.23
2023-03-13T00:21:00.590Z,29.17
2023-03-13T00:23:27.854Z,41.90
2023-03-13T00:26:14.978Z,40.60
2023-03-13T00:28:42.470Z,40.10
2023-03-13T00:31:20.180Z,33.37
2023-03-13T00:33:48.416Z,39.10
2023-03-13T00:36:17.609Z,35.33
2023-03-13T00:38:44.509Z,36.33
2023-03-13T00:41:14.246Z,40.73
2023-03-13T00:43:42.164Z,36.73
2023-03-13T00:46:09.241Z,41.50
2023-03-13T00:48:36.101Z,35.07
2023-03-13T00:51:03.222Z,44.60
2023-03-13T00:53:29.821Z,35.23
2023-03-13T00:55:58.801Z,30.00
2023-03-13T00:58:26.743Z,32.37
2023-03-13T01:00:53.818Z,38.50
2023-03-13T01:03:22.216Z,34.63
2023-03-13T01:05:59.136Z,34.07
2023-03-13T01:08:26.033Z,28.77
2023-03-13T01:11:00.751Z,39.03
2023-03-13T01:13:28.843Z,33.37
2023-03-13T01:15:55.603Z,34.10
2023-03-13T01:18:22.337Z,37.60
2023-03-13T01:20:48.827Z,42.37
2023-03-13T01:23:15.798Z,34.07
2023-03-13T01:25:42.762Z,35.53
2023-03-13T01:28:09.299Z,28.37
2023-03-13T01:30:35.817Z,30.03
2023-03-13T01:33:02.638Z,28.90
2023-03-13T01:35:29.118Z,34.40
2023-03-13T01:37:55.676Z,25.53
2023-03-13T01:40:22.193Z,30.00
2023-03-13T01:42:50.599Z,27.43
2023-03-13T01:46:00.321Z,26.83
2023-03-13T01:48:42.283Z,26.70
2023-03-13T01:51:16.979Z,22.87
2023-03-13T01:53:45.440Z,29.50
2023-03-13T01:56:17.544Z,25.57
2023-03-13T01:58:44.747Z,26.27
2023-03-13T02:01:11.931Z,28.40
2023-03-13T02:03:38.523Z,25.30
2023-03-13T02:06:06.324Z,27.17
2023-03-13T02:08:36.626Z,30.97
2023-03-13T02:11:18.241Z,25.73
2023-03-13T02:13:44.808Z,25.87
2023-03-13T02:16:11.642Z,24.40
2023-03-13T02:18:38.407Z,31.17
2023-03-13T02:21:15.200Z,36.03
2023-03-13T02:23:59.253Z,35.17
2023-03-13T02:26:25.744Z,26.63
2023-03-13T02:28:52.257Z,29.87
2023-03-13T02:31:18.845Z,31.60
2023-03-13T02:33:45.492Z,29.10
2023-03-13T02:36:13.466Z,37.37
2023-03-13T02:38:53.857Z,33.83
2023-03-13T02:41:21.767Z,37.67
2023-03-13T02:43:48.348Z,39.47
2023-03-13T02:46:17.510Z,37.87
2023-03-13T02:48:50.900Z,38.40
2023-03-13T02:51:23.445Z,37.97
2023-03-13T02:53:51.273Z,40.43
2023-03-13T02:56:20.529Z,36.00
2023-03-13T02:58:50.399Z,37.43
2023-03-13T03:01:17.236Z,38.03
2023-03-13T03:03:43.900Z,36.67
2023-03-13T03:06:10.400Z,34.87
2023-03-13T03:08:36.973Z,38.80
2023-03-13T03:11:05.319Z,47.03
2023-03-13T03:13:31.827Z,40.50
2023-03-13T03:15:58.276Z,53.10
2023-03-13T03:18:24.976Z,49.37
2023-03-13T03:20:51.460Z,44.17
2023-03-13T03:23:17.915Z,49.57
2023-03-13T03:25:44.425Z,41.77
2023-03-13T03:28:10.886Z,44.37
2023-03-13T03:30:37.365Z,45.83
2023-03-13T03:33:04.347Z,43.57
2023-03-13T03:35:30.979Z,48.40
2023-03-13T03:37:57.475Z,44.03
2023-03-13T03:40:23.956Z,46.90
2023-03-13T03:42:50.440Z,53.00
2023-03-13T03:45:16.949Z,52.90
2023-03-13T03:47:43.463Z,46.90
2023-03-13T03:50:11.110Z,50.53
2023-03-13T03:52:38.347Z,52.30
2023-03-13T03:55:05.478Z,43.97
2023-03-13T03:57:31.969Z,40.40
2023-03-13T03:59:58.427Z,51.03
2023-03-13T04:02:24.903Z,52.47
2023-03-13T04:04:51.452Z,49.00
2023-03-13T04:07:17.869Z,47.87
2023-03-13T04:09:44.324Z,41.20
2023-03-13T04:12:10.788Z,37.60
2023-03-13T04:14:37.335Z,43.43
2023-03-13T04:17:03.848Z,51.50
2023-03-13T04:19:30.357Z,47.27
2023-03-13T04:21:56.805Z,50.33
2023-03-13T04:24:23.279Z,42.63
2023-03-13T04:26:49.715Z,36.33
2023-03-13T04:29:16.191Z,40.73
2023-03-13T04:31:42.622Z,43.60
2023-03-13T04:34:09.089Z,46.33
2023-03-13T04:36:35.528Z,40.50
2023-03-13T04:39:02.009Z,44.80
2023-03-13T04:41:28.527Z,45.77
2023-03-13T04:43:55.047Z,38.07
2023-03-13T04:46:21.595Z,47.27
2023-03-13T04:48:48.082Z,42.70
2023-03-13T04:51:14.536Z,42.03
2023-03-13T04:53:40.990Z,42.60
2023-03-13T04:56:07.514Z,38.73
2023-03-13T04:58:34.017Z,33.57
2023-03-13T05:01:00.482Z,36.80
2023-03-13T05:03:27.029Z,46.10
2023-03-13T05:05:53.478Z,40.20
2023-03-13T05:08:19.996Z,41.20
2023-03-13T05:10:46.887Z,41.63
2023-03-13T05:13:13.366Z,35.97
2023-03-13T05:15:39.893Z,37.63
2023-03-13T05:18:06.449Z,29.47
2023-03-13T05:20:32.897Z,35.03
2023-03-13T05:22:59.397Z,34.30
2023-03-13T05:25:25.880Z,40.57
2023-03-13T05:27:52.354Z,39.33
2023-03-13T05:30:19.618Z,36.67
2023-03-13T05:32:46.132Z,27.20
2023-03-13T05:35:12.633Z,42.73
2023-03-13T05:37:41.265Z,33.00
2023-03-13T05:40:09.140Z,38.30
2023-03-13T05:42:35.730Z,40.10
2023-03-13T05:45:02.223Z,30.60
2023-03-13T05:47:28.665Z,30.70
2023-03-13T05:49:55.197Z,40.63
2023-03-13T05:52:21.677Z,35.10
2023-03-13T05:54:48.241Z,33.93
2023-03-13T05:57:14.817Z,30.33
2023-03-13T05:59:41.259Z,28.17
2023-03-13T06:02:07.783Z,34.40
2023-03-13T06:04:35.608Z,24.67
2023-03-13T06:07:02.172Z,21.40
2023-03-13T06:09:28.631Z,21.63
2023-03-13T06:11:55.360Z,30.73
2023-03-13T06:14:21.839Z,23.17
2023-03-13T06:16:48.418Z,22.40
2023-03-13T06:19:15.252Z,17.20
2023-03-13T06:21:41.852Z,15.70
2023-03-13T06:24:08.433Z,18.07
2023-03-13T06:26:34.869Z,20.83
2023-03-13T06:29:01.351Z,16.03
2023-03-13T06:31:27.810Z,16.63
2023-03-13T06:33:55.221Z,22.60
2023-03-13T06:36:25.594Z,20.70
2023-03-13T06:38:52.120Z,13.03
2023-03-13T06:41:18.603Z,16.53
2023-03-13T06:43:45.095Z,18.17
2023-03-13T06:46:20.668Z,21.33
2023-03-13T06:48:47.188Z,18.87
2023-03-13T06:51:14.949Z,9.27
2023-03-13T06:53:41.699Z,11.03
2023-03-13T06:56:09.231Z,14.97
2023-03-13T06:58:36.129Z,8.77
2023-03-13T07:01:10.573Z,15.93
2023-03-13T07:03:38.248Z,12.00
2023-03-13T07:06:05.932Z,12.90
2023-03-13T07:08:33.375Z,11.23
2023-03-13T07:11:02.548Z,10.63
2023-03-13T07:13:29.783Z,5.47
2023-03-13T07:15:57.367Z,9.00
2023-03-13T07:18:24.317Z,5.93
2023-03-13T07:20:55.861Z,8.13
2023-03-13T07:23:23.370Z,7.87
2023-03-13T07:26:01.083Z,6.53
2023-03-13T07:28:29.546Z,7.73
2023-03-13T07:30:56.139Z,7.60
2023-03-13T07:33:22.665Z,7.13
2023-03-13T07:35:52.451Z,8.90
2023-03-13T07:38:19.827Z,9.50
2023-03-13T07:40:51.448Z,5.50
2023-03-13T07:43:17.965Z,8.83
2023-03-13T07:46:01.490Z,4.93
2023-03-13T07:48:39.258Z,6.40
2023-03-13T07:51:07.914Z,7.47
2023-03-13T07:53:34.905Z,6.23
2023-03-13T07:56:02.762Z,4.50
2023-03-13T07:58:32.012Z,4.27
2023-03-13T08:00:59.635Z,5.87
2023-03-13T08:03:26.505Z,5.80
2023-03-13T08:06:00.744Z,5.10
2023-03-13T08:08:27.838Z,5.03
2023-03-13T08:10:54.373Z,4.70
2023-03-13T08:13:20.904Z,4.50
2023-03-13T08:15:47.399Z,4.70
2023-03-13T08:18:13.852Z,4.50
2023-03-13T08:20:40.309Z,3.57
2023-03-13T08:23:06.756Z,3.70
2023-03-13T08:25:33.470Z,4.63
2023-03-13T08:28:02.044Z,5.13
2023-03-13T08:30:29.067Z,5.00
2023-03-13T08:32:55.579Z,4.50
2023-03-13T08:35:22.135Z,4.90
2023-03-13T08:37:48.688Z,5.20
2023-03-13T08:40:15.328Z,5.87
2023-03-13T08:42:41.781Z,5.17
2023-03-13T08:45:08.783Z,5.27
2023-03-13T08:47:35.361Z,4.50
2023-03-13T08:50:02.341Z,4.80
2023-03-13T08:52:28.930Z,4.17
2023-03-13T08:54:55.494Z,5.70
2023-03-13T08:57:22.068Z,7.67
2023-03-13T08:59:49.594Z,5.40
2023-03-13T09:02:19.973Z,7.87
2023-03-13T09:04:48.314Z,6.53
2023-03-13T09:07:15.129Z,6.10
2023-03-13T09:09:41.631Z,6.47
2023-03-13T09:12:15.520Z,6.03
2023-03-13T09:14:48.356Z,5.50
2023-03-13T09:17:14.851Z,5.53
2023-03-13T09:19:54.160Z,5.30
2023-03-13T09:22:25.741Z,5.23
2023-03-13T09:24:52.203Z,5.37
2023-03-13T09:27:18.655Z,4.77
2023-03-13T09:29:45.166Z,5.30
2023-03-13T09:32:11.609Z,5.30
2023-03-13T09:34:38.073Z,7.63
2023-03-13T09:37:04.545Z,4.97
2023-03-13T09:39:31.044Z,4.07
2023-03-13T09:42:10.089Z,3.43
2023-03-13T09:44:50.479Z,4.30
2023-03-13T09:47:21.709Z,2.90
2023-03-13T09:49:57.287Z,2.90
2023-03-13T09:52:30.869Z,3.77
2023-03-13T09:55:02.903Z,2.93
2023-03-13T09:57:38.888Z,3.53
2023-03-13T10:00:12.581Z,3.90
2023-03-13T10:02:39.729Z,4.80
2023-03-13T10:05:12.586Z,4.03
2023-03-13T10:07:39.174Z,4.57
2023-03-13T10:10:13.999Z,4.70
2023-03-13T10:12:45.561Z,4.83
2023-03-13T10:15:33.863Z,4.87
2023-03-13T10:18:11.621Z,4.53
2023-03-13T10:20:39.361Z,5.33
2023-03-13T10:23:34.316Z,6.40
2023-03-13T10:26:00.842Z,6.50
2023-03-13T10:28:27.306Z,6.53
2023-03-13T10:31:03.513Z,5.30
2023-03-13T10:33:30.696Z,5.03
2023-03-13T10:36:03.439Z,3.57
2023-03-13T10:38:34.160Z,4.30
2023-03-13T10:41:06.691Z,3.50
2023-03-13T10:43:33.165Z,5.53
2023-03-13T10:45:59.635Z,5.63
2023-03-13T10:48:30.280Z,3.93
2023-03-13T10:51:02.280Z,3.60
2023-03-13T10:53:28.887Z,6.03
2023-03-13T10:55:58.403Z,2.57
2023-03-13T10:58:34.593Z,6.13
2023-03-13T11:01:17.320Z,4.67
2023-03-13T11:03:44.738Z,5.43
2023-03-13T11:06:28.358Z,4.80
2023-03-13T11:09:10.083Z,3.97
2023-03-13T11:11:51.828Z,4.40
2023-03-13T11:14:23.920Z,2.77
2023-03-13T11:16:56.456Z,2.67
2023-03-13T11:19:43.631Z,3.13
2023-03-13T11:22:30.537Z,2.20
2023-03-13T11:25:06.153Z,4.13
2023-03-13T11:27:38.778Z,2.97
2023-03-13T11:30:32.948Z,4.43
2023-03-13T11:33:02.946Z,3.27
2023-03-13T11:35:49.343Z,3.53
2023-03-13T11:38:27.460Z,3.37
2023-03-13T11:40:56.940Z,3.30
2023-03-13T11:43:41.084Z,3.13
2023-03-13T11:46:18.373Z,3.83
2023-03-13T11:49:15.902Z,3.37
2023-03-13T11:51:54.890Z,2.00
2023-03-13T11:54:47.540Z,2.53
2023-03-13T11:57:35.332Z,2.20
2023-03-13T12:00:40.805Z,2.07
2023-03-13T12:03:17.553Z,4.93
2023-03-13T12:05:52.160Z,3.97
2023-03-13T12:08:49.234Z,2.83
2023-03-13T12:11:29.021Z,3.97
2023-03-13T12:13:59.882Z,3.63
2023-03-13T12:16:50.559Z,2.80
2023-03-13T12:19:28.684Z,4.37
2023-03-13T12:21:57.216Z,7.03
2023-03-13T12:24:36.762Z,5.33
2023-03-13T12:27:55.235Z,4.63
2023-03-13T12:30:36.508Z,5.17
2023-03-13T12:33:26.533Z,4.47
2023-03-13T12:35:59.613Z,5.43
2023-03-13T12:38:40.075Z,5.53
2023-03-13T12:41:28.424Z,4.47
2023-03-13T12:44:08.313Z,7.10
2023-03-13T12:46:43.353Z,6.23
2023-03-13T12:49:38.102Z,5.97
2023-03-13T12:52:04.502Z,7.10
2023-03-13T12:54:44.583Z,10.60
2023-03-13T12:57:43.423Z,7.13
2023-03-13T13:00:17.045Z,5.27
2023-03-13T13:02:43.648Z,7.70
2023-03-13T13:05:21.328Z,8.20
2023-03-13T13:07:55.597Z,5.23
2023-03-13T13:10:26.245Z,5.80
2023-03-13T13:13:14.680Z,5.83
2023-03-13T13:16:05.144Z,5.47
2023-03-13T13:18:32.881Z,6.77
2023-03-13T13:21:02.436Z,6.23
2023-03-13T13:23:36.948Z,5.63
2023-03-13T13:26:33.794Z,7.80
2023-03-13T13:29:01.633Z,6.30
2023-03-13T13:31:56.994Z,9.10
2023-03-13T13:34:34.439Z,6.60
2023-03-13T13:37:06.077Z,7.00
2023-03-13T13:40:21.619Z,6.63
2023-03-13T13:42:59.373Z,6.03
2023-03-13T13:45:26.027Z,6.47
2023-03-13T13:48:14.998Z,8.50
2023-03-13T13:51:14.168Z,4.83
2023-03-13T13:53:48.480Z,11.87
2023-03-13T13:56:32.413Z,7.50
2023-03-13T13:59:20.239Z,6.37
2023-03-13T14:01:48.493Z,6.17
2023-03-13T14:04:28.683Z,5.40
2023-03-13T14:06:57.807Z,5.23
2023-03-13T14:09:48.234Z,6.03
2023-03-13T14:12:32.815Z,4.70
2023-03-13T14:15:20.052Z,5.57
2023-03-13T14:17:49.089Z,3.77
2023-03-13T14:20:27.968Z,5.63
2023-03-13T14:22:56.361Z,3.40
2023-03-13T14:25:24.307Z,7.97
2023-03-13T14:27:52.380Z,3.83
2023-03-13T14:30:20.966Z,5.13
2023-03-13T14:32:47.817Z,5.53
2023-03-13T14:35:19.497Z,3.50
2023-03-13T14:37:48.379Z,3.80
2023-03-13T14:40:17.817Z,4.50
2023-03-13T14:42:49.561Z,3.63
2023-03-13T14:45:22.487Z,6.10
2023-03-13T14:47:53.376Z,3.53
2023-03-13T14:50:22.729Z,3.80
2023-03-13T14:53:13.475Z,4.93
2023-03-13T14:55:44.330Z,5.57
2023-03-13T14:58:19.874Z,2.67
2023-03-13T15:00:48.364Z,4.27
2023-03-13T15:03:18.968Z,4.17
2023-03-13T15:06:13.710Z,4.73
2023-03-13T15:09:11.017Z,3.53
2023-03-13T15:11:54.942Z,8.17
2023-03-13T15:14:40.964Z,5.80
2023-03-13T15:17:16.935Z,4.33
2023-03-13T15:19:43.606Z,4.30
2023-03-13T15:22:12.911Z,6.40
2023-03-13T15:24:39.362Z,6.00
2023-03-13T15:27:15.156Z,6.47
2023-03-13T15:29:48.183Z,4.83
2023-03-13T15:32:32.918Z,6.07
2023-03-13T15:35:01.714Z,5.03
2023-03-13T15:37:30.110Z,5.80
2023-03-13T15:39:57.402Z,8.47
2023-03-13T15:42:24.831Z,6.20
2023-03-13T15:44:51.333Z,8.70
2023-03-13T15:47:43.956Z,6.50
2023-03-13T15:50:21.653Z,8.13
2023-03-13T15:52:56.770Z,8.13
2023-03-13T15:55:33.601Z,7.07
2023-03-13T15:58:01.118Z,7.57
2023-03-13T16:00:27.932Z,7.80
2023-03-13T16:17:00.461Z,8.63
2023-03-13T16:22:40.219Z,7.87
2023-03-13T16:25:18.937Z,10.97
2023-03-13T16:28:08.315Z,9.93
2023-03-13T16:30:38.104Z,9.40
2023-03-13T16:33:14.046Z,12.30
2023-03-13T16:35:56.838Z,9.67
2023-03-13T16:38:42.198Z,7.60
2023-03-13T16:41:11.072Z,11.00
2023-03-13T16:43:37.596Z,10.77
2023-03-13T16:46:10.175Z,7.63
2023-03-13T16:48:36.648Z,10.37
2023-03-13T16:51:03.731Z,10.80
2023-03-13T16:53:31.172Z,11.07
2023-03-13T16:55:57.637Z,11.83
2023-03-13T16:58:24.144Z,10.43
2023-03-13T17:01:04.304Z,11.40
2023-03-13T17:03:33.186Z,9.63
2023-03-13T17:05:59.716Z,10.93
2023-03-13T17:08:26.151Z,11.07
2023-03-13T17:10:52.671Z,7.77
2023-03-13T17:13:20.435Z,15.27
2023-03-13T17:15:46.899Z,10.17
2023-03-13T17:18:13.386Z,11.90
2023-03-13T17:20:39.982Z,12.50
2023-03-13T17:23:06.472Z,12.33
2023-03-13T17:25:33.263Z,10.97
2023-03-13T17:27:59.724Z,13.37
2023-03-13T17:30:31.207Z,17.23
2023-03-13T17:32:59.090Z,11.17
2023-03-13T17:35:25.742Z,13.33
2023-03-13T17:37:52.214Z,18.53
2023-03-13T17:40:28.004Z,16.80
2023-03-13T17:42:56.374Z,12.83
2023-03-13T17:45:23.026Z,18.07
2023-03-13T17:47:50.312Z,13.70
2023-03-13T17:50:26.902Z,11.90
2023-03-13T17:52:53.927Z,18.73
2023-03-13T17:55:20.414Z,13.43
2023-03-13T17:57:48.330Z,15.10
2023-03-13T18:00:20.789Z,14.70
2023-03-13T18:02:47.356Z,16.50
2023-03-13T18:05:13.983Z,14.93
2023-03-13T18:07:44.080Z,15.23
2023-03-13T18:10:16.688Z,15.40
2023-03-13T18:12:43.204Z,17.10
2023-03-13T18:15:10.132Z,22.57
2023-03-13T18:17:36.560Z,13.97
2023-03-13T18:20:04.848Z,17.17
2023-03-13T18:22:31.318Z,12.93
2023-03-13T18:24:57.824Z,13.43
2023-03-13T18:27:24.259Z,17.27
2023-03-13T18:29:50.745Z,12.90
2023-03-13T18:32:18.605Z,19.83
2023-03-13T18:34:45.482Z,14.33
2023-03-13T18:37:30.424Z,13.73
2023-03-13T18:39:58.036Z,14.10
2023-03-13T18:42:24.866Z,13.67
2023-03-13T18:44:51.898Z,11.80
2023-03-13T18:47:21.456Z,14.63
2023-03-13T18:49:49.917Z,12.97
2023-03-13T18:52:17.264Z,13.13
2023-03-13T18:54:45.046Z,14.73
2023-03-13T18:57:17.333Z,15.23
2023-03-13T18:59:45.069Z,17.97
2023-03-13T19:02:14.636Z,13.50
2023-03-13T19:04:41.480Z,15.87
2023-03-13T19:07:24.240Z,17.37
2023-03-13T19:09:50.810Z,14.13
2023-03-13T19:12:17.326Z,16.83
2023-03-13T19:14:44.049Z,19.43
2023-03-13T19:17:23.570Z,16.37
2023-03-13T19:19:50.330Z,14.13
2023-03-13T19:22:16.857Z,14.47
2023-03-13T19:24:43.379Z,19.27
2023-03-13T19:27:13.116Z,16.97
2023-03-13T19:29:39.953Z,14.20
2023-03-13T19:32:07.586Z,16.47
2023-03-13T19:34:34.201Z,15.17
2023-03-13T19:37:00.718Z,16.00
2023-03-13T19:39:27.208Z,21.80
2023-03-13T19:41:54.141Z,16.77
2023-03-13T19:44:20.994Z,16.07
2023-03-13T19:46:47.773Z,19.27
2023-03-13T19:49:17.390Z,13.57
2023-03-13T19:51:43.957Z,15.30
2023-03-13T19:54:11.279Z,20.70
2023-03-13T19:56:39.523Z,16.40
2023-03-13T19:59:17.606Z,20.07
2023-03-13T20:01:47.951Z,17.83
2023-03-13T20:04:15.526Z,15.23
2023-03-13T20:06:42.954Z,14.97
2023-03-13T20:09:12.038Z,13.23
2023-03-13T20:11:39.027Z,17.13
2023-03-13T20:14:05.963Z,20.20
2023-03-13T20:16:34.954Z,19.80
2023-03-13T20:19:02.319Z,16.90
2023-03-13T20:21:33.958Z,14.57
2023-03-13T20:24:00.945Z,18.13
2023-03-13T20:26:29.149Z,18.47
2023-03-13T20:28:56.055Z,16.47
2023-03-13T20:31:26.341Z,14.60
2023-03-13T20:33:52.855Z,18.40
2023-03-13T20:36:20.757Z,16.10
2023-03-13T20:38:47.948Z,22.13
2023-03-13T20:41:16.229Z,17.83
2023-03-13T20:43:42.848Z,18.93
2023-03-13T20:46:09.646Z,17.83
2023-03-13T20:48:39.309Z,16.73
2023-03-13T20:51:07.296Z,17.43
2023-03-13T20:53:38.822Z,19.17
2023-03-13T20:56:07.199Z,18.30
2023-03-13T20:58:34.828Z,23.33
2023-03-13T21:01:02.706Z,20.13
2023-03-13T21:03:29.562Z,12.60
2023-03-13T21:05:56.054Z,15.70
2023-03-13T21:08:23.400Z,14.90
2023-03-13T21:10:50.152Z,17.60
2023-03-13T21:13:16.589Z,16.30
2023-03-13T21:15:43.140Z,15.47
2023-03-13T21:18:09.798Z,18.00
2023-03-13T21:20:37.677Z,14.80
2023-03-13T21:23:04.273Z,17.23
2023-03-13T21:25:30.827Z,16.17
2023-03-13T21:27:57.295Z,15.93
2023-03-13T21:30:24.372Z,17.70
2023-03-13T21:32:50.928Z,18.90
2023-03-13T21:35:17.483Z,18.57
2023-03-13T21:37:44.280Z,19.77
2023-03-13T21:40:11.881Z,18.67
2023-03-13T21:42:38.431Z,14.90
2023-03-13T21:45:07.064Z,18.63
2023-03-13T21:47:36.974Z,16.83
2023-03-13T21:50:07.064Z,17.30
2023-03-13T21:52:40.655Z,18.43
2023-03-13T21:55:09.164Z,17.97
2023-03-13T21:57:36.917Z,17.73
2023-03-13T22:00:08.259Z,18.03
2023-03-13T22:02:36.497Z,18.27
2023-03-13T22:05:03.876Z,15.20
2023-03-13T22:07:33.247Z,17.00
2023-03-13T22:09:59.901Z,21.43
2023-03-13T22:12:30.141Z,19.10
2023-03-13T22:14:57.870Z,22.60
2023-03-13T22:17:25.401Z,15.90
2023-03-13T22:19:51.867Z,17.63
2023-03-13T22:22:20.059Z,17.13
2023-03-13T22:24:46.697Z,18.13
2023-03-13T22:27:13.590Z,19.07
2023-03-13T22:29:40.035Z,15.30
2023-03-13T22:32:06.828Z,18.93
2023-03-13T22:34:33.274Z,12.93
2023-03-13T22:36:59.795Z,14.33
2023-03-13T22:39:26.259Z,16.63
2023-03-13T22:41:52.733Z,21.40
2023-03-13T22:44:19.320Z,17.30
2023-03-13T22:46:45.780Z,23.50
2023-03-13T22:49:12.252Z,13.53
2023-03-13T22:51:38.766Z,16.33
2023-03-13T22:54:05.272Z,20.03
2023-03-13T22:56:31.736Z,17.97
2023-03-13T22:58:58.209Z,17.27
2023-03-13T23:01:24.796Z,19.47
2023-03-13T23:03:51.260Z,22.53
2023-03-13T23:06:21.425Z,17.90
2023-03-13T23:08:48.070Z,23.90
2023-03-13T23:11:15.147Z,16.87
2023-03-13T23:13:41.763Z,22.07
2023-03-13T23:16:10.029Z,21.17
2023-03-13T23:18:37.226Z,21.63
2023-03-13T23:21:05.942Z,17.83
2023-03-13T23:23:33.095Z,20.93
2023-03-13T23:26:00.558Z,18.40
2023-03-13T23:28:27.572Z,18.97
2023-03-13T23:30:54.124Z,18.97
2023-03-13T23:33:20.619Z,17.60
2023-03-13T23:35:47.110Z,14.53
2023-03-13T23:38:13.705Z,18.00
2023-03-13T23:40:40.168Z,16.93
2023-03-13T23:43:07.640Z,20.80
2023-03-13T23:45:36.512Z,16.27
2023-03-13T23:48:02.992Z,22.23
2023-03-13T23:50:29.642Z,19.50
2023-03-13T23:52:56.154Z,15.80
2023-03-13T23:55:22.598Z,17.97
2023-03-13T23:57:50.462Z,16.60
